sensor_id;sensor_type;location;lat;lon;timestamp;pressure;altitude;pressure_sealevel;temperature;humidity
10897;BME280;5501;51.176;6.470;2023-06-10T00:01:03;100837.81;;;21.21;84.77
10897;BME280;5501;51.176;6.470;2023-06-10T00:06:06;100835.41;;;21.17;84.81
10897;BME280;5501;51.176;6.470;2023-06-10T00:11:07;100840.09;;;21.15;84.74
10897;BME280;5501;51.176;6.470;2023-06-10T00:16:09;100835.75;;;21.12;84.65
10897;BME280;5501;51.176;6.470;2023-06-10T00:21:10;100844.84;;;21.11;84.19
10897;BME280;5501;51.176;6.470;2023-06-10T00:26:14;100836.16;;;20.94;83.78
10897;BME280;5501;51.176;6.470;2023-06-10T00:31:18;100834.66;;;20.76;84.57
10897;BME280;5501;51.176;6.470;2023-06-10T00:36:20;100836.16;;;20.94;83.54
10897;BME280;5501;51.176;6.470;2023-06-10T00:41:22;100839.13;;;20.77;83.05
10897;BME280;5501;51.176;6.470;2023-06-10T00:46:24;100847.69;;;20.57;83.35
10897;BME280;5501;51.176;6.470;2023-06-10T00:51:29;100842.94;;;20.60;83.79
10897;BME280;5501;51.176;6.470;2023-06-10T00:56:31;100846.16;;;20.53;83.68
10897;BME280;5501;51.176;6.470;2023-06-10T01:01:33;100844.16;;;20.42;86.52
10897;BME280;5501;51.176;6.470;2023-06-10T01:17:14;100846.38;;;20.36;85.56
10897;BME280;5501;51.176;6.470;2023-06-10T01:22:18;100839.31;;;20.21;85.61
10897;BME280;5501;51.176;6.470;2023-06-10T01:27:21;100856.47;;;20.06;87.99
10897;BME280;5501;51.176;6.470;2023-06-10T01:32:31;100843.84;;;19.92;88.62
10897;BME280;5501;51.176;6.470;2023-06-10T01:37:34;100847.22;;;19.96;87.69
10897;BME280;5501;51.176;6.470;2023-06-10T01:42:36;100858.78;;;19.98;87.17
10897;BME280;5501;51.176;6.470;2023-06-10T01:47:38;100854.34;;;19.82;87.87
10897;BME280;5501;51.176;6.470;2023-06-10T01:52:39;100848.16;;;19.94;87.24
10897;BME280;5501;51.176;6.470;2023-06-10T01:57:41;100850.50;;;19.86;86.67
10897;BME280;5501;51.176;6.470;2023-06-10T02:02:43;100858.03;;;19.81;86.27
10897;BME280;5501;51.176;6.470;2023-06-10T02:07:44;100862.75;;;19.78;85.89
10897;BME280;5501;51.176;6.470;2023-06-10T02:12:46;100856.66;;;19.74;87.26
10897;BME280;5501;51.176;6.470;2023-06-10T02:17:48;100861.28;;;19.86;86.95
10897;BME280;5501;51.176;6.470;2023-06-10T02:22:50;100868.22;;;19.62;85.03
10897;BME280;5501;51.176;6.470;2023-06-10T02:27:52;100869.03;;;19.50;85.77
10897;BME280;5501;51.176;6.470;2023-06-10T02:32:53;100873.06;;;19.43;85.55
10897;BME280;5501;51.176;6.470;2023-06-10T02:37:59;100872.47;;;19.52;87.05
10897;BME280;5501;51.176;6.470;2023-06-10T02:43:01;100871.72;;;19.64;83.43
10897;BME280;5501;51.176;6.470;2023-06-10T02:48:03;100878.44;;;19.57;83.73
10897;BME280;5501;51.176;6.470;2023-06-10T02:53:06;100876.22;;;19.64;84.40
10897;BME280;5501;51.176;6.470;2023-06-10T02:58:09;100872.09;;;19.58;84.55
10897;BME280;5501;51.176;6.470;2023-06-10T03:03:11;100879.41;;;19.56;83.63
10897;BME280;5501;51.176;6.470;2023-06-10T03:08:22;100880.84;;;19.48;82.25
10897;BME280;5501;51.176;6.470;2023-06-10T03:13:24;100871.91;;;19.47;84.37
10897;BME280;5501;51.176;6.470;2023-06-10T03:18:26;100878.63;;;19.40;84.37
10897;BME280;5501;51.176;6.470;2023-06-10T03:23:29;100879.03;;;19.34;83.79
10897;BME280;5501;51.176;6.470;2023-06-10T03:28:31;100879.97;;;19.33;85.49
10897;BME280;5501;51.176;6.470;2023-06-10T03:33:33;100877.84;;;19.24;85.09
10897;BME280;5501;51.176;6.470;2023-06-10T03:38:35;100889.69;;;19.06;84.17
10897;BME280;5501;51.176;6.470;2023-06-10T03:43:40;100886.72;;;19.11;84.94
10897;BME280;5501;51.176;6.470;2023-06-10T03:48:42;100892.69;;;19.31;85.18
10897;BME280;5501;51.176;6.470;2023-06-10T03:53:44;100893.53;;;19.32;84.69
10897;BME280;5501;51.176;6.470;2023-06-10T03:58:45;100890.97;;;19.44;83.47
10897;BME280;5501;51.176;6.470;2023-06-10T04:03:48;100900.94;;;19.28;83.64
10897;BME280;5501;51.176;6.470;2023-06-10T04:08:52;100901.53;;;19.33;83.98
10897;BME280;5501;51.176;6.470;2023-06-10T04:13:55;100895.56;;;19.28;83.32
10897;BME280;5501;51.176;6.470;2023-06-10T04:18:56;100901.47;;;19.19;85.74
10897;BME280;5501;51.176;6.470;2023-06-10T04:23:58;100912.81;;;19.26;87.66
10897;BME280;5501;51.176;6.470;2023-06-10T04:29:00;100907.91;;;19.32;87.87
10897;BME280;5501;51.176;6.470;2023-06-10T04:34:03;100909.63;;;19.33;88.10
10897;BME280;5501;51.176;6.470;2023-06-10T04:39:06;100904.94;;;19.21;90.52
10897;BME280;5501;51.176;6.470;2023-06-10T04:44:09;100906.94;;;19.33;90.33
10897;BME280;5501;51.176;6.470;2023-06-10T04:49:12;100905.69;;;19.25;91.14
10897;BME280;5501;51.176;6.470;2023-06-10T04:54:15;100909.75;;;19.46;88.55
10897;BME280;5501;51.176;6.470;2023-06-10T04:59:17;100905.59;;;19.40;89.21
10897;BME280;5501;51.176;6.470;2023-06-10T05:04:18;100908.94;;;19.59;86.87
10897;BME280;5501;51.176;6.470;2023-06-10T05:09:20;100916.44;;;19.68;84.42
10897;BME280;5501;51.176;6.470;2023-06-10T05:14:22;100916.06;;;19.88;85.95
10897;BME280;5501;51.176;6.470;2023-06-10T05:19:23;100917.72;;;19.91;84.08
10897;BME280;5501;51.176;6.470;2023-06-10T05:24:25;100915.88;;;19.77;82.80
10897;BME280;5501;51.176;6.470;2023-06-10T05:29:27;100921.97;;;20.09;81.61
10897;BME280;5501;51.176;6.470;2023-06-10T05:34:29;100925.31;;;20.27;80.76
10897;BME280;5501;51.176;6.470;2023-06-10T05:39:31;100927.56;;;20.34;80.57
10897;BME280;5501;51.176;6.470;2023-06-10T05:44:33;100926.28;;;20.40;79.26
10897;BME280;5501;51.176;6.470;2023-06-10T05:49:34;100929.56;;;20.45;79.71
10897;BME280;5501;51.176;6.470;2023-06-10T05:54:36;100923.81;;;20.63;79.39
10897;BME280;5501;51.176;6.470;2023-06-10T05:59:37;100929.16;;;20.77;79.24
10897;BME280;5501;51.176;6.470;2023-06-10T06:04:39;100929.53;;;20.85;79.41
10897;BME280;5501;51.176;6.470;2023-06-10T06:09:40;100926.81;;;20.99;78.66
10897;BME280;5501;51.176;6.470;2023-06-10T06:14:42;100928.56;;;21.13;78.73
10897;BME280;5501;51.176;6.470;2023-06-10T06:19:44;100929.69;;;21.23;79.21
10897;BME280;5501;51.176;6.470;2023-06-10T06:24:46;100933.19;;;21.37;78.18
10897;BME280;5501;51.176;6.470;2023-06-10T06:29:48;100936.34;;;21.44;78.71
10897;BME280;5501;51.176;6.470;2023-06-10T06:34:50;100946.66;;;21.64;77.21
10897;BME280;5501;51.176;6.470;2023-06-10T06:39:57;100943.44;;;21.84;76.06
10897;BME280;5501;51.176;6.470;2023-06-10T06:45:01;100955.69;;;21.77;76.22
10897;BME280;5501;51.176;6.470;2023-06-10T06:50:03;100951.78;;;22.06;72.20
10897;BME280;5501;51.176;6.470;2023-06-10T06:55:05;100947.09;;;22.33;71.68
10897;BME280;5501;51.176;6.470;2023-06-10T07:00:08;100951.63;;;22.45;72.18
10897;BME280;5501;51.176;6.470;2023-06-10T07:05:10;100963.25;;;22.47;71.86
10897;BME280;5501;51.176;6.470;2023-06-10T07:10:12;100971.03;;;22.64;70.87
10897;BME280;5501;51.176;6.470;2023-06-10T07:15:14;100966.97;;;22.69;67.23
10897;BME280;5501;51.176;6.470;2023-06-10T07:20:16;100954.38;;;22.81;66.01
10897;BME280;5501;51.176;6.470;2023-06-10T07:25:17;100956.41;;;22.90;66.67
10897;BME280;5501;51.176;6.470;2023-06-10T07:30:19;100948.75;;;23.18;63.05
10897;BME280;5501;51.176;6.470;2023-06-10T07:35:20;100955.06;;;23.42;61.27
10897;BME280;5501;51.176;6.470;2023-06-10T07:40:23;100960.16;;;23.47;61.76
10897;BME280;5501;51.176;6.470;2023-06-10T07:45:25;100959.44;;;23.56;62.31
10897;BME280;5501;51.176;6.470;2023-06-10T07:50:26;100960.19;;;23.69;62.96
10897;BME280;5501;51.176;6.470;2023-06-10T07:55:29;100967.22;;;23.95;58.38
10897;BME280;5501;51.176;6.470;2023-06-10T08:00:30;100968.09;;;24.06;60.48
10897;BME280;5501;51.176;6.470;2023-06-10T08:05:32;100964.03;;;24.23;59.29
10897;BME280;5501;51.176;6.470;2023-06-10T08:10:33;100962.06;;;24.36;58.52
10897;BME280;5501;51.176;6.470;2023-06-10T08:15:35;100963.78;;;24.59;53.75
10897;BME280;5501;51.176;6.470;2023-06-10T08:20:36;100967.47;;;24.58;53.72
10897;BME280;5501;51.176;6.470;2023-06-10T08:25:38;100960.06;;;24.60;54.59
10897;BME280;5501;51.176;6.470;2023-06-10T08:30:39;100957.34;;;24.82;53.06
10897;BME280;5501;51.176;6.470;2023-06-10T08:35:41;100957.34;;;25.14;53.16
10897;BME280;5501;51.176;6.470;2023-06-10T08:40:43;100955.72;;;25.33;52.30
10897;BME280;5501;51.176;6.470;2023-06-10T08:45:48;100953.69;;;25.46;52.76
10897;BME280;5501;51.176;6.470;2023-06-10T08:50:51;100956.81;;;25.62;50.64
10897;BME280;5501;51.176;6.470;2023-06-10T08:55:55;100965.81;;;25.42;51.22
10897;BME280;5501;51.176;6.470;2023-06-10T09:00:58;100960.53;;;25.61;51.08
10897;BME280;5501;51.176;6.470;2023-06-10T09:06:02;100952.78;;;25.98;50.74
10897;BME280;5501;51.176;6.470;2023-06-10T09:11:05;100958.13;;;25.88;52.19
10897;BME280;5501;51.176;6.470;2023-06-10T09:16:07;100957.38;;;26.27;48.08
10897;BME280;5501;51.176;6.470;2023-06-10T09:21:09;100957.91;;;26.21;51.57
10897;BME280;5501;51.176;6.470;2023-06-10T09:26:11;100951.91;;;26.57;49.41
10897;BME280;5501;51.176;6.470;2023-06-10T09:31:13;100954.56;;;26.68;47.58
10897;BME280;5501;51.176;6.470;2023-06-10T09:36:24;100952.53;;;26.70;47.94
10897;BME280;5501;51.176;6.470;2023-06-10T09:41:39;100945.16;;;26.91;47.07
10897;BME280;5501;51.176;6.470;2023-06-10T09:46:42;100951.19;;;27.04;45.93
10897;BME280;5501;51.176;6.470;2023-06-10T09:51:54;100939.53;;;27.02;46.64
10897;BME280;5501;51.176;6.470;2023-06-10T09:56:56;100932.41;;;27.39;45.66
10897;BME280;5501;51.176;6.470;2023-06-10T10:02:00;100941.28;;;27.70;45.33
10897;BME280;5501;51.176;6.470;2023-06-10T10:07:02;100940.88;;;27.93;44.85
10897;BME280;5501;51.176;6.470;2023-06-10T10:12:09;100931.50;;;28.32;42.14
10897;BME280;5501;51.176;6.470;2023-06-10T10:17:14;100930.44;;;28.53;43.18
10897;BME280;5501;51.176;6.470;2023-06-10T10:22:26;100925.97;;;28.52;42.38
10897;BME280;5501;51.176;6.470;2023-06-10T10:27:33;100921.63;;;28.59;42.70
10897;BME280;5501;51.176;6.470;2023-06-10T10:32:57;100923.53;;;28.76;42.44
10897;BME280;5501;51.176;6.470;2023-06-10T10:38:02;100915.16;;;29.04;41.90
10897;BME280;5501;51.176;6.470;2023-06-10T10:43:04;100905.78;;;29.07;40.45
10897;BME280;5501;51.176;6.470;2023-06-10T10:48:10;100911.66;;;28.85;40.83
10897;BME280;5501;51.176;6.470;2023-06-10T10:53:19;100900.66;;;28.94;40.10
10897;BME280;5501;51.176;6.470;2023-06-10T10:58:24;100906.66;;;28.98;39.28
10897;BME280;5501;51.176;6.470;2023-06-10T11:03:29;100902.22;;;28.97;40.38
10897;BME280;5501;51.176;6.470;2023-06-10T11:13:35;100888.50;;;28.97;41.32
10897;BME280;5501;51.176;6.470;2023-06-10T11:18:40;100886.50;;;29.34;36.75
10897;BME280;5501;51.176;6.470;2023-06-10T11:23:41;100879.00;;;29.18;37.71
10897;BME280;5501;51.176;6.470;2023-06-10T11:33:54;100877.25;;;29.35;36.69
10897;BME280;5501;51.176;6.470;2023-06-10T11:38:58;100868.56;;;29.39;36.70
10897;BME280;5501;51.176;6.470;2023-06-10T11:44:07;100869.56;;;29.56;36.08
10897;BME280;5501;51.176;6.470;2023-06-10T11:49:08;100866.69;;;29.83;36.10
10897;BME280;5501;51.176;6.470;2023-06-10T11:54:10;100861.75;;;29.61;36.37
10897;BME280;5501;51.176;6.470;2023-06-10T11:59:11;100863.81;;;29.49;36.12
10897;BME280;5501;51.176;6.470;2023-06-10T12:04:14;100851.91;;;29.33;36.90
10897;BME280;5501;51.176;6.470;2023-06-10T12:09:25;100853.00;;;29.05;35.81
10897;BME280;5501;51.176;6.470;2023-06-10T12:14:51;100854.78;;;28.96;37.43
10897;BME280;5501;51.176;6.470;2023-06-10T12:19:57;100848.38;;;28.88;38.58
10897;BME280;5501;51.176;6.470;2023-06-10T12:25:04;100850.13;;;29.67;38.46
10897;BME280;5501;51.176;6.470;2023-06-10T12:30:08;100845.47;;;30.18;35.83
10897;BME280;5501;51.176;6.470;2023-06-10T12:35:11;100846.53;;;30.25;36.43
10897;BME280;5501;51.176;6.470;2023-06-10T12:40:15;100841.88;;;29.67;35.33
10897;BME280;5501;51.176;6.470;2023-06-10T12:45:28;100846.94;;;29.36;36.49
10897;BME280;5501;51.176;6.470;2023-06-10T12:50:31;100849.84;;;29.35;37.95
10897;BME280;5501;51.176;6.470;2023-06-10T12:55:33;100845.75;;;29.39;38.09
10897;BME280;5501;51.176;6.470;2023-06-10T13:00:34;100847.03;;;29.27;37.87
10897;BME280;5501;51.176;6.470;2023-06-10T13:05:36;100853.63;;;28.99;39.66
10897;BME280;5501;51.176;6.470;2023-06-10T13:10:39;100854.63;;;28.80;40.68
10897;BME280;5501;51.176;6.470;2023-06-10T13:15:41;100850.81;;;28.46;40.53
10897;BME280;5501;51.176;6.470;2023-06-10T13:20:44;100861.16;;;28.15;41.93
10897;BME280;5501;51.176;6.470;2023-06-10T13:25:46;100856.78;;;27.95;43.11
10897;BME280;5501;51.176;6.470;2023-06-10T13:30:47;100848.69;;;28.03;43.58
10897;BME280;5501;51.176;6.470;2023-06-10T13:35:49;100832.09;;;28.14;43.63
10897;BME280;5501;51.176;6.470;2023-06-10T13:40:50;100830.69;;;28.38;42.74
10897;BME280;5501;51.176;6.470;2023-06-10T13:45:52;100826.81;;;28.58;42.66
10897;BME280;5501;51.176;6.470;2023-06-10T13:50:53;100817.91;;;28.56;43.15
10897;BME280;5501;51.176;6.470;2023-06-10T13:55:55;100811.97;;;28.43;44.01
10897;BME280;5501;51.176;6.470;2023-06-10T14:00:57;100806.97;;;28.56;42.37
10897;BME280;5501;51.176;6.470;2023-06-10T14:05:59;100812.13;;;28.59;44.31
10897;BME280;5501;51.176;6.470;2023-06-10T14:11:01;100809.56;;;28.57;45.40
10897;BME280;5501;51.176;6.470;2023-06-10T14:16:03;100810.16;;;28.51;47.52
10897;BME280;5501;51.176;6.470;2023-06-10T14:21:05;100806.03;;;28.65;47.81
10897;BME280;5501;51.176;6.470;2023-06-10T14:26:06;100798.53;;;29.02;44.65
10897;BME280;5501;51.176;6.470;2023-06-10T14:31:08;100792.03;;;29.46;43.60
10897;BME280;5501;51.176;6.470;2023-06-10T14:36:10;100786.78;;;29.78;40.64
10897;BME280;5501;51.176;6.470;2023-06-10T14:41:12;100787.41;;;30.39;36.70
10897;BME280;5501;51.176;6.470;2023-06-10T14:46:14;100791.72;;;30.57;36.76
10897;BME280;5501;51.176;6.470;2023-06-10T14:51:15;100789.47;;;30.37;36.52
10897;BME280;5501;51.176;6.470;2023-06-10T14:56:17;100786.53;;;30.38;35.86
10897;BME280;5501;51.176;6.470;2023-06-10T15:01:18;100778.00;;;30.57;37.47
10897;BME280;5501;51.176;6.470;2023-06-10T15:06:20;100776.53;;;30.71;36.29
10897;BME280;5501;51.176;6.470;2023-06-10T15:11:24;100775.16;;;30.83;36.74
10897;BME280;5501;51.176;6.470;2023-06-10T15:16:25;100761.09;;;30.78;36.78
10897;BME280;5501;51.176;6.470;2023-06-10T15:21:27;100767.50;;;30.53;37.08
10897;BME280;5501;51.176;6.470;2023-06-10T15:26:29;100764.94;;;30.02;38.80
10897;BME280;5501;51.176;6.470;2023-06-10T15:31:30;100756.25;;;29.73;38.43
10897;BME280;5501;51.176;6.470;2023-06-10T15:36:33;100766.16;;;29.66;39.04
10897;BME280;5501;51.176;6.470;2023-06-10T15:41:35;100764.44;;;29.65;38.26
10897;BME280;5501;51.176;6.470;2023-06-10T15:46:37;100758.72;;;29.33;39.63
10897;BME280;5501;51.176;6.470;2023-06-10T15:51:39;100752.47;;;29.23;40.44
10897;BME280;5501;51.176;6.470;2023-06-10T15:56:47;100754.78;;;29.10;40.86
10897;BME280;5501;51.176;6.470;2023-06-10T16:01:48;100755.44;;;29.04;41.75
10897;BME280;5501;51.176;6.470;2023-06-10T16:06:50;100749.38;;;29.00;41.48
10897;BME280;5501;51.176;6.470;2023-06-10T16:11:51;100741.00;;;29.02;40.22
10897;BME280;5501;51.176;6.470;2023-06-10T16:16:53;100737.78;;;29.24;40.73
10897;BME280;5501;51.176;6.470;2023-06-10T16:21:54;100733.44;;;29.47;41.04
10897;BME280;5501;51.176;6.470;2023-06-10T16:26:56;100739.94;;;29.46;40.45
10897;BME280;5501;51.176;6.470;2023-06-10T16:31:58;100735.81;;;29.67;41.15
10897;BME280;5501;51.176;6.470;2023-06-10T16:37:03;100734.78;;;29.43;40.57
10897;BME280;5501;51.176;6.470;2023-06-10T16:42:05;100729.97;;;29.37;38.93
10897;BME280;5501;51.176;6.470;2023-06-10T16:47:07;100733.72;;;29.10;39.06
10897;BME280;5501;51.176;6.470;2023-06-10T16:52:08;100740.34;;;29.00;39.39
10897;BME280;5501;51.176;6.470;2023-06-10T16:57:10;100738.09;;;28.86;39.37
10897;BME280;5501;51.176;6.470;2023-06-10T17:02:11;100740.16;;;28.84;39.21
10897;BME280;5501;51.176;6.470;2023-06-10T17:07:13;100743.22;;;28.81;39.42
10897;BME280;5501;51.176;6.470;2023-06-10T17:12:15;100738.75;;;28.80;39.83
10897;BME280;5501;51.176;6.470;2023-06-10T17:17:17;100741.19;;;28.83;39.71
10897;BME280;5501;51.176;6.470;2023-06-10T17:22:18;100748.16;;;28.77;39.59
10897;BME280;5501;51.176;6.470;2023-06-10T17:27:20;100748.53;;;28.47;40.40
10897;BME280;5501;51.176;6.470;2023-06-10T17:32:24;100746.47;;;28.31;40.72
10897;BME280;5501;51.176;6.470;2023-06-10T17:37:26;100747.78;;;28.27;39.05
10897;BME280;5501;51.176;6.470;2023-06-10T17:42:27;100741.84;;;28.14;40.29
10897;BME280;5501;51.176;6.470;2023-06-10T17:47:29;100745.25;;;28.16;39.98
10897;BME280;5501;51.176;6.470;2023-06-10T17:52:31;100749.66;;;28.09;41.06
10897;BME280;5501;51.176;6.470;2023-06-10T17:57:32;100766.34;;;28.06;40.43
10897;BME280;5501;51.176;6.470;2023-06-10T18:02:34;100758.97;;;27.89;40.92
10897;BME280;5501;51.176;6.470;2023-06-10T18:07:36;100762.47;;;27.72;41.38
10897;BME280;5501;51.176;6.470;2023-06-10T18:12:38;100764.22;;;27.64;41.91
10897;BME280;5501;51.176;6.470;2023-06-10T18:17:40;100762.47;;;27.72;41.78
10897;BME280;5501;51.176;6.470;2023-06-10T18:22:41;100762.84;;;27.50;42.31
10897;BME280;5501;51.176;6.470;2023-06-10T18:27:43;100764.53;;;27.51;41.98
10897;BME280;5501;51.176;6.470;2023-06-10T18:32:44;100764.25;;;27.54;41.92
10897;BME280;5501;51.176;6.470;2023-06-10T18:37:46;100772.22;;;27.38;42.53
10897;BME280;5501;51.176;6.470;2023-06-10T18:42:48;100780.81;;;27.43;41.97
10897;BME280;5501;51.176;6.470;2023-06-10T18:47:49;100782.19;;;27.30;43.15
10897;BME280;5501;51.176;6.470;2023-06-10T18:52:59;100787.34;;;27.23;42.89
10897;BME280;5501;51.176;6.470;2023-06-10T18:58:01;100795.09;;;27.18;43.35
10897;BME280;5501;51.176;6.470;2023-06-10T19:03:02;100801.72;;;27.06;43.58
10897;BME280;5501;51.176;6.470;2023-06-10T19:08:04;100804.03;;;27.01;43.42
10897;BME280;5501;51.176;6.470;2023-06-10T19:13:06;100797.28;;;26.86;44.12
10897;BME280;5501;51.176;6.470;2023-06-10T19:18:07;100806.31;;;26.77;44.44
10897;BME280;5501;51.176;6.470;2023-06-10T19:23:09;100811.22;;;26.64;45.03
10897;BME280;5501;51.176;6.470;2023-06-10T19:28:11;100818.38;;;26.65;45.07
10897;BME280;5501;51.176;6.470;2023-06-10T19:33:12;100818.63;;;26.53;45.38
10897;BME280;5501;51.176;6.470;2023-06-10T19:38:14;100829.41;;;26.54;44.95
10897;BME280;5501;51.176;6.470;2023-06-10T19:43:15;100827.50;;;26.36;45.20
10897;BME280;5501;51.176;6.470;2023-06-10T19:48:17;100830.81;;;26.39;45.59
10897;BME280;5501;51.176;6.470;2023-06-10T19:53:19;100833.22;;;26.23;46.34
10897;BME280;5501;51.176;6.470;2023-06-10T19:58:20;100846.97;;;26.22;46.67
10897;BME280;5501;51.176;6.470;2023-06-10T20:03:22;100849.75;;;26.01;47.28
10897;BME280;5501;51.176;6.470;2023-06-10T20:08:23;100857.50;;;25.96;47.44
10897;BME280;5501;51.176;6.470;2023-06-10T20:13:26;100868.94;;;25.90;48.04
10897;BME280;5501;51.176;6.470;2023-06-10T20:18:28;100864.56;;;25.78;48.09
10897;BME280;5501;51.176;6.470;2023-06-10T20:23:29;100866.78;;;25.64;48.77
10897;BME280;5501;51.176;6.470;2023-06-10T20:28:31;100873.38;;;25.61;49.24
10897;BME280;5501;51.176;6.470;2023-06-10T20:33:32;100873.75;;;25.36;49.90
10897;BME280;5501;51.176;6.470;2023-06-10T20:38:34;100879.94;;;25.38;50.80
10897;BME280;5501;51.176;6.470;2023-06-10T20:43:36;100880.97;;;25.26;51.17
10897;BME280;5501;51.176;6.470;2023-06-10T20:48:37;100883.25;;;25.10;52.05
10897;BME280;5501;51.176;6.470;2023-06-10T20:53:39;100884.75;;;25.03;52.66
10897;BME280;5501;51.176;6.470;2023-06-10T20:58:40;100890.97;;;25.05;52.62
10897;BME280;5501;51.176;6.470;2023-06-10T21:03:42;100882.94;;;24.93;53.54
10897;BME280;5501;51.176;6.470;2023-06-10T21:08:43;100888.53;;;24.91;53.64
10897;BME280;5501;51.176;6.470;2023-06-10T21:13:45;100901.19;;;24.81;54.41
10897;BME280;5501;51.176;6.470;2023-06-10T21:18:47;100901.66;;;24.86;54.41
10897;BME280;5501;51.176;6.470;2023-06-10T21:23:48;100909.38;;;24.70;55.03
10897;BME280;5501;51.176;6.470;2023-06-10T21:28:50;100906.31;;;24.64;55.65
10897;BME280;5501;51.176;6.470;2023-06-10T21:33:52;100912.09;;;24.59;56.13
10897;BME280;5501;51.176;6.470;2023-06-10T21:38:54;100916.44;;;24.51;56.58
10897;BME280;5501;51.176;6.470;2023-06-10T21:43:55;100923.00;;;24.48;56.79
10897;BME280;5501;51.176;6.470;2023-06-10T21:48:57;100910.16;;;24.28;57.40
10897;BME280;5501;51.176;6.470;2023-06-10T21:53:59;100910.91;;;24.08;58.70
10897;BME280;5501;51.176;6.470;2023-06-10T21:59:01;100916.09;;;24.00;59.45
10897;BME280;5501;51.176;6.470;2023-06-10T22:04:03;100923.00;;;24.04;59.60
10897;BME280;5501;51.176;6.470;2023-06-10T22:09:05;100920.09;;;23.83;60.11
10897;BME280;5501;51.176;6.470;2023-06-10T22:14:07;100928.88;;;23.76;60.69
10897;BME280;5501;51.176;6.470;2023-06-10T22:19:09;100924.69;;;23.83;60.82
10897;BME280;5501;51.176;6.470;2023-06-10T22:24:10;100920.09;;;23.83;60.65
10897;BME280;5501;51.176;6.470;2023-06-10T22:29:12;100920.75;;;23.87;61.29
10897;BME280;5501;51.176;6.470;2023-06-10T22:34:13;100920.81;;;23.74;62.00
10897;BME280;5501;51.176;6.470;2023-06-10T22:39:15;100917.75;;;23.68;62.18
10897;BME280;5501;51.176;6.470;2023-06-10T22:44:17;100927.00;;;23.65;63.37
10897;BME280;5501;51.176;6.470;2023-06-10T22:49:19;100931.31;;;23.68;63.22
10897;BME280;5501;51.176;6.470;2023-06-10T22:54:21;100920.63;;;23.43;63.93
10897;BME280;5501;51.176;6.470;2023-06-10T22:59:22;100927.53;;;23.36;64.87
10897;BME280;5501;51.176;6.470;2023-06-10T23:04:24;100929.22;;;23.26;64.59
10897;BME280;5501;51.176;6.470;2023-06-10T23:09:26;100922.97;;;23.13;65.25
10897;BME280;5501;51.176;6.470;2023-06-10T23:14:27;100934.56;;;23.15;65.43
10897;BME280;5501;51.176;6.470;2023-06-10T23:19:29;100940.22;;;22.88;66.00
10897;BME280;5501;51.176;6.470;2023-06-10T23:24:30;100943.56;;;22.92;66.55
10897;BME280;5501;51.176;6.470;2023-06-10T23:29:32;100933.13;;;22.75;68.49
10897;BME280;5501;51.176;6.470;2023-06-10T23:34:39;100943.13;;;22.74;67.80
10897;BME280;5501;51.176;6.470;2023-06-10T23:39:41;100945.16;;;22.71;68.01
10897;BME280;5501;51.176;6.470;2023-06-10T23:44:45;100941.44;;;22.61;68.27
10897;BME280;5501;51.176;6.470;2023-06-10T23:49:47;100935.16;;;22.35;69.53
10897;BME280;5501;51.176;6.470;2023-06-10T23:54:49;100932.38;;;22.12;70.66
10897;BME280;5501;51.176;6.470;2023-06-10T23:59:50;100929.22;;;22.18;71.16
